Ivory Coast — WDC4732 — position and weather

sailwx.info

Track history (hours):
 
Tides and Currents Weather Stations Pressure Air Temp Water Temp Dewpoint Dewpoint Depression Visibility Wind Speed Wind Dir Waves Ship Positions

Ivory Coast

Owner: Dann Marine Towing, LC, Chesapeake City, MD. More information available from US FCC via Universal Licensing System and Coast Guard Vessel Documentation Center.

Last reported at 2017-Dec-11 17:00 UTC. Time now 2017-Dec-12 21:58 UTC.
Position N 39°54' W 075°12'.

Length 33 m; draft 5 m.

Type: Tug. MMSI: 367029690.

Date/timePositionNaut miles runAvg speedWind from/ knotsBaromVisibWave heightAir tempDewpointWater temp
2017-Dec-11 17:00N 39°54' W 075°12'0 0.0
2017-Dec-11 16:30N 39°54' W 075°12'0 0.1
2017-Dec-11 16:01N 39°54' W 075°12'0 0.0
2017-Dec-11 15:30N 39°54' W 075°12'0 0.0
2017-Dec-11 15:01N 39°54' W 075°12'0 0.0
2017-Dec-11 14:31N 39°54' W 075°12'0 0.0
2017-Dec-11 14:01N 39°54' W 075°12'0 0.0
2017-Dec-11 13:31N 39°54' W 075°12'0 0.0
2017-Dec-11 13:01N 39°54' W 075°12'0 0.0
2017-Dec-11 12:30N 39°54' W 075°12'0 0.0
2017-Dec-11 12:01N 39°54' W 075°12'0 0.0
2017-Dec-11 11:30N 39°54' W 075°12'0 0.0
2017-Dec-11 11:01N 39°54' W 075°12'0 0.0
2017-Dec-11 10:30N 39°54' W 075°12'0 0.0
2017-Dec-11 10:01N 39°54' W 075°12'0 0.0
2017-Dec-11 09:31N 39°54' W 075°12'0 0.0
2017-Dec-11 09:01N 39°54' W 075°12'0 0.0
2017-Dec-11 08:30N 39°54' W 075°12'0 0.0
2017-Dec-11 08:01N 39°54' W 075°12'0 0.0
2017-Dec-11 07:30N 39°54' W 075°12'0 0.0
2017-Dec-11 07:00N 39°54' W 075°12'0 0.0
2017-Dec-11 06:30N 39°54' W 075°12'0 0.0
2017-Dec-11 06:01N 39°54' W 075°12'0 0.0
2017-Dec-11 05:30N 39°54' W 075°12'0 0.0
2017-Dec-11 05:00N 39°54' W 075°12'0 0.0
2017-Dec-11 04:31N 39°54' W 075°12'0 0.0
2017-Dec-11 04:00N 39°54' W 075°12'0 0.0
2017-Dec-11 03:31N 39°54' W 075°12'0 0.0
2017-Dec-11 03:01N 39°54' W 075°12'0 0.0
2017-Dec-11 02:31N 39°54' W 075°12'0 0.0
2017-Dec-11 02:01N 39°54' W 075°12'0 0.0
2017-Dec-11 01:31N 39°54' W 075°12'0 0.0
2017-Dec-11 01:01N 39°54' W 075°12'0 0.0
2017-Dec-11 00:30N 39°54' W 075°12'0 0.0
2017-Dec-11 00:00N 39°54' W 075°12'0 0.0
2017-Dec-10 23:31N 39°54' W 075°12'0 0.0
2017-Dec-10 23:01N 39°54' W 075°12'0 0.0
2017-Dec-10 22:30N 39°54' W 075°12'0 0.0
2017-Dec-10 22:00N 39°54' W 075°12'0 0.0
2017-Dec-10 21:30N 39°54' W 075°12'0 0.0
2017-Dec-10 21:00N 39°54' W 075°12'0 0.0
2017-Dec-10 20:30N 39°54' W 075°12'0 0.0
2017-Dec-10 20:01N 39°54' W 075°12'0 0.0
2017-Dec-10 19:30N 39°54' W 075°12'0 0.0
2017-Dec-10 19:00N 39°54' W 075°12'0 0.0
2017-Dec-10 18:30N 39°54' W 075°12'0 0.0
2017-Dec-10 18:01N 39°54' W 075°12'0 0.0
2017-Dec-10 17:31N 39°54' W 075°12'0 0.0
2017-Dec-10 17:00N 39°54' W 075°12'0 0.6
2017-Dec-10 16:31N 39°54' W 075°12'0 0.6
2017-Dec-10 16:00N 39°54' W 075°12'0 0.0
2017-Dec-10 15:30N 39°54' W 075°12'0 0.0
2017-Dec-10 15:01N 39°54' W 075°12'0 0.0
2017-Dec-10 14:31N 39°54' W 075°12'0 0.0
2017-Dec-10 14:01N 39°54' W 075°12'0 0.0
2017-Dec-10 13:31N 39°54' W 075°12'1 2.9
2017-Dec-10 13:00N 39°53' W 075°10'4 8.4
2017-Dec-10 12:31N 39°57' W 075°08'4 8.1
2017-Dec-10 12:01N 39°59' W 075°04'1 1.5
2017-Dec-10 11:31N 39°60' W 075°04'4 8.3
2017-Dec-10 11:01N 39°58' W 075°08'3 5.7
2017-Dec-10 10:30N 39°55' W 075°08'3 6.8
2017-Dec-10 10:01N 39°53' W 075°11'1 1.3
2017-Dec-10 09:31N 39°54' W 075°12'0 0.0
2017-Dec-10 08:58N 39°54' W 075°12'0 0.0
2017-Dec-10 08:28N 39°54' W 075°12'0 0.0
2017-Dec-10 07:58N 39°54' W 075°12'0 0.0
2017-Dec-10 07:28N 39°54' W 075°12'0 0.0
2017-Dec-10 06:58N 39°54' W 075°12'0 0.1
2017-Dec-10 06:28N 39°54' W 075°12'0 0.0
2017-Dec-10 05:58N 39°54' W 075°12'0 0.0
2017-Dec-10 05:28N 39°54' W 075°12'0 0.0
2017-Dec-10 04:58N 39°54' W 075°12'0 0.0
2017-Dec-10 04:28N 39°54' W 075°12'0 0.0
2017-Dec-10 03:58N 39°54' W 075°12'0 0.0
2017-Dec-10 03:28N 39°54' W 075°12'0 0.0
2017-Dec-10 02:58N 39°54' W 075°12'0 0.0
2017-Dec-10 02:28N 39°54' W 075°12'0 0.0
2017-Dec-10 01:58N 39°54' W 075°12'0 0.0
2017-Dec-10 01:28N 39°54' W 075°12'0 0.0
2017-Dec-10 00:58N 39°54' W 075°12'0 0.0
2017-Dec-10 00:28N 39°54' W 075°12'0 0.0
2017-Dec-09 23:58N 39°54' W 075°12'0 0.1
2017-Dec-09 23:28N 39°54' W 075°12'0 0.0
2017-Dec-09 22:58N 39°54' W 075°12'0 0.0
2017-Dec-09 22:28N 39°54' W 075°12'0 0.0
2017-Dec-09 21:58N 39°54' W 075°12'0 0.0
2017-Dec-09 21:28N 39°54' W 075°12'0 0.0
2017-Dec-09 20:58N 39°54' W 075°12'0 0.0
2017-Dec-09 20:28N 39°54' W 075°12'0 0.0
2017-Dec-09 19:58N 39°54' W 075°12'0 0.0
2017-Dec-09 19:28N 39°54' W 075°12'0 0.1
2017-Dec-09 19:01N 39°54' W 075°12'4 8.7
2017-Dec-09 18:30N 39°51' W 075°16'4 8.0
2017-Dec-09 18:00N 39°50' W 075°21'2 4.9
2017-Dec-09 17:30N 39°49' W 075°24'3 6.3
2017-Dec-09 17:01N 39°47' W 075°27'0 0.3
2017-Dec-09 16:30N 39°47' W 075°27'0 0.0
2017-Dec-09 16:00N 39°47' W 075°27'1 2.4
2017-Dec-09 15:31N 39°48' W 075°26'5 8.7
2017-Dec-09 14:59N 39°50' W 075°21'0 0.0
2017-Dec-09 14:31N 39°50' W 075°21'2 3.4
2017-Dec-09 14:00N 39°50' W 075°23'2 3.4
2017-Dec-09 13:30N 39°50' W 075°21'0 0.0
2017-Dec-09 13:00N 39°50' W 075°21'0 0.0
2017-Dec-09 12:30N 39°50' W 075°21'0 0.0
2017-Dec-09 12:00N 39°50' W 075°21'0 0.0
2017-Dec-09 11:30N 39°50' W 075°21'0 0.0
2017-Dec-09 11:00N 39°50' W 075°21'0 0.0
2017-Dec-09 10:30N 39°50' W 075°21'0 0.0
2017-Dec-09 10:00N 39°50' W 075°21'0 0.0
2017-Dec-09 09:30N 39°50' W 075°21'0 0.3
2017-Dec-09 09:00N 39°50' W 075°21'1 1.2
2017-Dec-09 08:31N 39°50' W 075°22'1 2.3
2017-Dec-09 07:56N 39°49' W 075°23'0 0.1
2017-Dec-09 07:29N 39°49' W 075°23'0 0.1
2017-Dec-09 06:59N 39°49' W 075°23'0 0.0
2017-Dec-09 06:29N 39°49' W 075°23'0 0.1
2017-Dec-09 05:59N 39°49' W 075°23'0 0.1
2017-Dec-09 05:29N 39°49' W 075°23'0 0.2
2017-Dec-09 04:59N 39°49' W 075°23'2 3.4
2017-Dec-09 04:30N 39°50' W 075°22'0 0.4
2017-Dec-09 04:00N 39°50' W 075°22'0 0.1
2017-Dec-09 03:27N 39°50' W 075°22'0 0.0
2017-Dec-09 03:00N 39°50' W 075°22'0 0.0
2017-Dec-09 02:30N 39°50' W 075°22'0 0.0
2017-Dec-09 02:00N 39°50' W 075°22'0 0.5
2017-Dec-09 01:30N 39°50' W 075°22'0 0.4
2017-Dec-09 01:00N 39°50' W 075°22'0 0.0
2017-Dec-09 00:30N 39°50' W 075°22'0 0.8
2017-Dec-09 00:01N 39°50' W 075°22'0 0.4
2017-Dec-08 23:31N 39°50' W 075°21'0 0.1
2017-Dec-08 23:00N 39°50' W 075°21'0 0.0
2017-Dec-08 22:30N 39°50' W 075°21'0 0.4
2017-Dec-08 22:01N 39°50' W 075°21'0 0.5
2017-Dec-08 21:31N 39°50' W 075°21'0 0.3
2017-Dec-08 21:01N 39°50' W 075°21'0 0.3
2017-Dec-08 20:31N 39°50' W 075°21'1 2.4
2017-Dec-08 20:01N 39°50' W 075°23'1 1.6
2017-Dec-08 19:31N 39°49' W 075°23'0 0.0
2017-Dec-08 19:01N 39°49' W 075°23'0 0.0
2017-Dec-08 18:31N 39°49' W 075°23'0 0.0
2017-Dec-08 18:01N 39°49' W 075°23'0 0.1
2017-Dec-08 17:30N 39°49' W 075°23'0 0.0
2017-Dec-08 17:00N 39°49' W 075°23'0 0.0
2017-Dec-08 16:31N 39°49' W 075°23'0 0.0
2017-Dec-08 16:00N 39°49' W 075°23'0 0.0
2017-Dec-08 15:30N 39°49' W 075°23'0 0.1
2017-Dec-08 15:01N 39°49' W 075°23'0 0.2
2017-Dec-08 14:30N 39°49' W 075°23'0 0.0
2017-Dec-08 14:01N 39°49' W 075°23'0 0.0
2017-Dec-08 13:30N 39°49' W 075°23'0 0.1
2017-Dec-08 13:00N 39°49' W 075°23'0 0.0
2017-Dec-08 12:30N 39°49' W 075°23'0 0.0
2017-Dec-08 12:00N 39°49' W 075°23'0 0.0
2017-Dec-08 11:30N 39°49' W 075°23'0 0.1
2017-Dec-08 11:00N 39°49' W 075°23'0 0.0
2017-Dec-08 10:30N 39°49' W 075°23'0 0.0
2017-Dec-08 10:01N 39°49' W 075°23'0 0.0
2017-Dec-08 09:30N 39°49' W 075°23'1 2.8
2017-Dec-08 09:00N 39°50' W 075°22'1 1.6
2017-Dec-08 08:30N 39°50' W 075°21'0 0.0
2017-Dec-08 08:00N 39°50' W 075°21'0 0.1
2017-Dec-08 07:31N 39°50' W 075°21'0 0.0
2017-Dec-08 07:00N 39°50' W 075°21'0 0.0
2017-Dec-08 06:30N 39°50' W 075°21'0 0.0
2017-Dec-08 06:00N 39°50' W 075°21'0 0.0
2017-Dec-08 05:30N 39°50' W 075°21'0 0.0
2017-Dec-08 05:00N 39°50' W 075°21'0 0.0
2017-Dec-08 04:30N 39°50' W 075°21'0 0.0
2017-Dec-08 04:00N 39°50' W 075°21'0 0.0
2017-Dec-08 03:30N 39°50' W 075°21'0 0.0
2017-Dec-08 03:00N 39°50' W 075°21'0 0.1
2017-Dec-08 02:30N 39°50' W 075°21'0 0.4
2017-Dec-08 02:00N 39°50' W 075°21'0 0.0
2017-Dec-08 01:30N 39°50' W 075°21'0 0.0
2017-Dec-08 01:00N 39°50' W 075°21'0 0.2
2017-Dec-08 00:31N 39°50' W 075°21'0 0.0
2017-Dec-08 00:01N 39°50' W 075°21'0 0.0
2017-Dec-07 23:30N 39°50' W 075°21'0 0.0
2017-Dec-07 23:00N 39°50' W 075°21'0 0.0
2017-Dec-07 22:30N 39°50' W 075°21'0 0.1
2017-Dec-07 22:01N 39°50' W 075°21'0 0.2
2017-Dec-07 21:31N 39°50' W 075°21'0 0.6
2017-Dec-07 21:01N 39°50' W 075°22'0 0.0
2017-Dec-07 20:30N 39°50' W 075°22'0 0.1
2017-Dec-07 20:00N 39°50' W 075°22'0 0.1
2017-Dec-07 19:30N 39°50' W 075°22'0 0.0
2017-Dec-07 19:00N 39°50' W 075°22'0 0.2
2017-Dec-07 18:30N 39°50' W 075°21'2 3.4
2017-Dec-07 18:00N 39°49' W 075°23'0 0.0
2017-Dec-07 17:30N 39°49' W 075°23'0 0.0
2017-Dec-07 17:01N 39°49' W 075°23'0 0.2
2017-Dec-07 16:31N 39°49' W 075°23'0 0.1
2017-Dec-07 16:00N 39°49' W 075°23'0 0.0
2017-Dec-07 15:30N 39°49' W 075°23'0 0.0
2017-Dec-07 15:00N 39°49' W 075°23'0 0.0
2017-Dec-07 14:30N 39°49' W 075°23'0 0.0
2017-Dec-07 14:00N 39°49' W 075°23'0 0.0
2017-Dec-07 13:30N 39°49' W 075°23'0 0.0
2017-Dec-07 13:00N 39°49' W 075°23'0 0.0
2017-Dec-07 12:30N 39°49' W 075°23'1 1.3
2017-Dec-07 12:00N 39°50' W 075°23'0 0.2
2017-Dec-07 11:30N 39°50' W 075°23'1 1.2
2017-Dec-07 10:59N 39°49' W 075°23'0 0.1
2017-Dec-07 10:31N 39°49' W 075°23'0 0.2
2017-Dec-07 10:01N 39°49' W 075°23'1 1.1
2017-Dec-07 09:31N 39°50' W 075°23'4 6.9
2017-Dec-07 09:00N 39°47' W 075°27'3 6.0
2017-Dec-07 08:30N 39°49' W 075°23'1 1.1
2017-Dec-07 08:00N 39°50' W 075°23'1 1.1
2017-Dec-07 07:30N 39°49' W 075°23'0 0.0
2017-Dec-07 07:00N 39°49' W 075°23'0 0.0
2017-Dec-07 06:30N 39°49' W 075°23'0 0.0
2017-Dec-07 06:00N 39°49' W 075°23'0 0.6
2017-Dec-07 05:30N 39°49' W 075°23'0 0.6
2017-Dec-07 04:59N 39°49' W 075°23'0 0.0
2017-Dec-07 04:31N 39°49' W 075°23'0 0.1
2017-Dec-07 04:00N 39°49' W 075°23'1 1.0
2017-Dec-07 03:30N 39°49' W 075°23'0 0.3
2017-Dec-07 03:01N 39°50' W 075°23'0 0.0
2017-Dec-07 02:31N 39°50' W 075°23'0 0.0
2017-Dec-07 02:00N 39°50' W 075°23'0 0.0
2017-Dec-07 01:30N 39°50' W 075°23'4 7.4
2017-Dec-07 01:01N 39°47' W 075°27'3 6.0
2017-Dec-07 00:30N 39°49' W 075°24'1 1.4
2017-Dec-06 23:59N 39°50' W 075°23'0 0.2
2017-Dec-06 23:30N 39°50' W 075°23'0 0.8
2017-Dec-06 22:59N 39°49' W 075°23'0 0.7
2017-Dec-06 22:30N 39°49' W 075°23'0 0.1
2017-Dec-06 21:58N 39°49' W 075°23'0 0.1
2017-Dec-06 21:28N 39°49' W 075°23'0 0.1
2017-Dec-06 20:58N 39°49' W 075°23'  
2017-Dec-04 10:30N 39°50' W 075°21'0 0.0
2017-Dec-04 10:01N 39°50' W 075°21'0 0.0
2017-Dec-04 09:23N 39°50' W 075°21'0 0.0
2017-Dec-04 08:59N 39°50' W 075°21'0 0.0
2017-Dec-04 08:27N 39°50' W 075°21'0 0.0
2017-Dec-04 07:58N 39°50' W 075°21'0 0.0
2017-Dec-04 07:25N 39°50' W 075°21'0 0.1
2017-Dec-04 06:59N 39°50' W 075°21'0 0.3
2017-Dec-04 06:27N 39°50' W 075°21'0 0.0
2017-Dec-04 05:54N 39°50' W 075°21'0 0.0
2017-Dec-04 05:29N 39°50' W 075°21'0 0.0
2017-Dec-04 04:59N 39°50' W 075°21'0 0.0
2017-Dec-04 04:26N 39°50' W 075°21'0 0.1
2017-Dec-04 04:00N 39°50' W 075°21'0 0.0
2017-Dec-04 03:27N 39°50' W 075°21'0 0.0
2017-Dec-04 02:57N 39°50' W 075°21'0 0.0
2017-Dec-04 02:28N 39°50' W 075°21'0 0.0
2017-Dec-04 01:59N 39°50' W 075°21'0 0.1
2017-Dec-04 01:28N 39°50' W 075°21'0 0.0
2017-Dec-04 00:55N 39°50' W 075°21'0 0.0
2017-Dec-04 00:27N 39°50' W 075°21'0 0.0
2017-Dec-04 00:00N 39°50' W 075°21'0 0.0
2017-Dec-03 23:30N 39°50' W 075°21'0 0.0
2017-Dec-03 23:00N 39°50' W 075°21'0 0.0
2017-Dec-03 22:29N 39°50' W 075°21'0 0.0
2017-Dec-03 22:00N 39°50' W 075°21'0 0.0
2017-Dec-03 21:30N 39°50' W 075°21'0 0.0
2017-Dec-03 20:54N 39°50' W 075°21'0 0.0
2017-Dec-03 20:28N 39°50' W 075°21'0 0.4
2017-Dec-03 20:01N 39°50' W 075°21'0 0.3
2017-Dec-03 19:26N 39°50' W 075°21'0 0.0
2017-Dec-03 18:58N 39°50' W 075°21'0 0.0
2017-Dec-03 18:29N 39°50' W 075°21'0 0.0
2017-Dec-03 17:59N 39°50' W 075°21'0 0.0
2017-Dec-03 17:29N 39°50' W 075°21'0 0.3
2017-Dec-03 16:59N 39°50' W 075°21'0 0.0
2017-Dec-03 16:23N 39°50' W 075°21'0 0.1
2017-Dec-03 15:56N 39°50' W 075°21'0 0.1
2017-Dec-03 15:29N 39°50' W 075°21'0 0.0
2017-Dec-03 14:56N 39°50' W 075°21'0 0.0
2017-Dec-03 14:28N 39°50' W 075°21'0 0.0
2017-Dec-03 14:00N 39°50' W 075°21'2 2.7
2017-Dec-03 13:24N 39°49' W 075°23'0 0.2
2017-Dec-03 12:56N 39°49' W 075°23'0 0.0
2017-Dec-03 12:30N 39°49' W 075°23'0 0.0
2017-Dec-03 12:00N 39°49' W 075°23'0 0.0
2017-Dec-03 11:30N 39°49' W 075°23'1 1.8
2017-Dec-03 10:58N 39°50' W 075°22'0 0.5
2017-Dec-03 10:31N 39°50' W 075°22'0 0.0
2017-Dec-03 10:00N 39°50' W 075°22'0 0.0
2017-Dec-03 09:30N 39°50' W 075°22'0 0.0
2017-Dec-03 09:00N 39°50' W 075°22'0 0.3
2017-Dec-03 08:30N 39°50' W 075°22'0 0.0
2017-Dec-03 08:00N 39°50' W 075°22'0 0.0
2017-Dec-03 07:29N 39°50' W 075°22'0 0.0
2017-Dec-03 06:59N 39°50' W 075°22'0 0.4
2017-Dec-03 06:30N 39°50' W 075°22'0 0.0
2017-Dec-03 06:00N 39°50' W 075°21'0 0.0
2017-Dec-03 05:29N 39°50' W 075°21'0 0.0
2017-Dec-03 04:58N 39°50' W 075°21'0 0.0
2017-Dec-03 04:30N 39°50' W 075°21'0 0.1
2017-Dec-03 03:57N 39°50' W 075°21'0 0.0
2017-Dec-03 03:30N 39°50' W 075°21'0 0.0
2017-Dec-03 02:59N 39°50' W 075°21'0 0.1
2017-Dec-03 02:29N 39°50' W 075°21'0 0.0
2017-Dec-03 02:00N 39°50' W 075°21'0 0.0
2017-Dec-03 01:27N 39°50' W 075°21'0 0.0
2017-Dec-03 00:59N 39°50' W 075°21'0 0.0
2017-Dec-03 00:30N 39°50' W 075°21'0 0.0
2017-Dec-03 00:00N 39°50' W 075°21'0 0.0
2017-Dec-02 23:30N 39°50' W 075°21'0 0.0
2017-Dec-02 22:59N 39°50' W 075°21'0 0.0
2017-Dec-02 22:27N 39°50' W 075°21'0 0.0
2017-Dec-02 21:58N 39°50' W 075°21'0 0.0
2017-Dec-02 21:28N 39°50' W 075°21'0 0.0
2017-Dec-02 21:00N 39°50' W 075°21'0 0.0
2017-Dec-02 20:29N 39°50' W 075°21'0 0.0
2017-Dec-02 19:56N 39°50' W 075°21'0 0.0
2017-Dec-02 19:29N 39°50' W 075°21'0 0.0
2017-Dec-02 18:59N 39°50' W 075°21'0 0.0
2017-Dec-02 18:26N 39°50' W 075°21'0 0.0
2017-Dec-02 18:00N 39°50' W 075°21'0 0.0
2017-Dec-02 17:28N 39°50' W 075°21'0 0.1
2017-Dec-02 17:00N 39°50' W 075°21'0 0.1
2017-Dec-02 16:28N 39°50' W 075°21'0 0.1
2017-Dec-02 15:57N 39°50' W 075°21'0 0.1
2017-Dec-02 15:30N 39°50' W 075°21'0 0.1
2017-Dec-02 14:59N 39°50' W 075°21'0 0.0
2017-Dec-02 14:30N 39°50' W 075°21'0 0.0
2017-Dec-02 13:59N 39°50' W 075°21'0 0.2
2017-Dec-02 13:29N 39°50' W 075°22'0 0.0
2017-Dec-02 13:00N 39°50' W 075°21'0 0.0
2017-Dec-02 12:30N 39°50' W 075°21'0 0.0
2017-Dec-02 11:59N 39°50' W 075°21'0 0.0
2017-Dec-02 11:30N 39°50' W 075°21'0 0.0
2017-Dec-02 10:59N 39°50' W 075°21'0 0.1
2017-Dec-02 10:29N 39°50' W 075°21'0 0.2
2017-Dec-02 10:00N 39°50' W 075°22'0 0.0
2017-Dec-02 09:30N 39°50' W 075°22'0 0.0
2017-Dec-02 09:00N 39°50' W 075°22'0 0.0
2017-Dec-02 08:30N 39°50' W 075°22'0 0.2
2017-Dec-02 07:58N 39°50' W 075°22'0 0.0
2017-Dec-02 07:28N 39°50' W 075°22'0 0.0
2017-Dec-02 06:58N 39°50' W 075°22'0 0.0
2017-Dec-02 06:30N 39°50' W 075°22'0 0.2
2017-Dec-02 06:00N 39°50' W 075°22'0 0.0
2017-Dec-02 05:30N 39°50' W 075°22'0 0.0
2017-Dec-02 05:00N 39°50' W 075°22'0 0.3
2017-Dec-02 04:30N 39°50' W 075°22'0 0.3
2017-Dec-02 04:00N 39°50' W 075°22'0 0.1
2017-Dec-02 03:29N 39°50' W 075°22'0 0.1
2017-Dec-02 03:00N 39°50' W 075°22'0 0.0
2017-Dec-02 02:30N 39°50' W 075°22'0 0.1
2017-Dec-02 01:59N 39°50' W 075°22'0 0.0
2017-Dec-02 01:30N 39°50' W 075°22'0 0.0
2017-Dec-02 01:00N 39°50' W 075°22'0 0.0
2017-Dec-02 00:30N 39°50' W 075°22'0 0.0
2017-Dec-02 00:00N 39°50' W 075°22'0 0.0
2017-Dec-01 23:30N 39°50' W 075°22'0 0.2
2017-Dec-01 23:00N 39°50' W 075°22'0 0.1
2017-Dec-01 22:30N 39°50' W 075°22'0 0.4
2017-Dec-01 22:01N 39°50' W 075°22'0 0.7
2017-Dec-01 21:28N 39°49' W 075°23'0 0.5
2017-Dec-01 21:01N 39°49' W 075°23'0 0.0
2017-Dec-01 20:31N 39°49' W 075°23'0 0.2
2017-Dec-01 20:00N 39°49' W 075°23'0 0.1
2017-Dec-01 19:30N 39°49' W 075°23'0 0.1
2017-Dec-01 19:01N 39°49' W 075°23'1 1.5
2017-Dec-01 18:28N 39°50' W 075°22'0 0.0
2017-Dec-01 17:58N 39°50' W 075°22'0 0.0
2017-Dec-01 17:28N 39°50' W 075°22'  
Track history (hours):
 
Tides and Currents Weather Stations Pressure Air Temp Water Temp Dewpoint Dewpoint Depression Visibility Wind Speed Wind Dir Waves Ship Positions

Ivory Coast

Owner: Dann Marine Towing, LC, Chesapeake City, MD. More information available from US FCC via Universal Licensing System and Coast Guard Vessel Documentation Center.

Last reported at 2017-Dec-11 17:00 UTC. Time now 2017-Dec-12 21:58 UTC.
Position N 39°54' W 075°12'.

Length 33 m; draft 5 m.

Type: Tug. MMSI: 367029690.

Date/timePositionNaut miles runAvg speedWind from/ knotsBaromVisibWave heightAir tempDewpointWater temp
2017-Dec-11 17:00N 39°54' W 075°12'0 0.0
2017-Dec-11 16:30N 39°54' W 075°12'0 0.1
2017-Dec-11 16:01N 39°54' W 075°12'0 0.0
2017-Dec-11 15:30N 39°54' W 075°12'0 0.0
2017-Dec-11 15:01N 39°54' W 075°12'0 0.0
2017-Dec-11 14:31N 39°54' W 075°12'0 0.0
2017-Dec-11 14:01N 39°54' W 075°12'0 0.0
2017-Dec-11 13:31N 39°54' W 075°12'0 0.0
2017-Dec-11 13:01N 39°54' W 075°12'0 0.0
2017-Dec-11 12:30N 39°54' W 075°12'0 0.0
2017-Dec-11 12:01N 39°54' W 075°12'0 0.0
2017-Dec-11 11:30N 39°54' W 075°12'0 0.0
2017-Dec-11 11:01N 39°54' W 075°12'0 0.0
2017-Dec-11 10:30N 39°54' W 075°12'0 0.0
2017-Dec-11 10:01N 39°54' W 075°12'0 0.0
2017-Dec-11 09:31N 39°54' W 075°12'0 0.0
2017-Dec-11 09:01N 39°54' W 075°12'0 0.0
2017-Dec-11 08:30N 39°54' W 075°12'0 0.0
2017-Dec-11 08:01N 39°54' W 075°12'0 0.0
2017-Dec-11 07:30N 39°54' W 075°12'0 0.0
2017-Dec-11 07:00N 39°54' W 075°12'0 0.0
2017-Dec-11 06:30N 39°54' W 075°12'0 0.0
2017-Dec-11 06:01N 39°54' W 075°12'0 0.0
2017-Dec-11 05:30N 39°54' W 075°12'0 0.0
2017-Dec-11 05:00N 39°54' W 075°12'0 0.0
2017-Dec-11 04:31N 39°54' W 075°12'0 0.0
2017-Dec-11 04:00N 39°54' W 075°12'0 0.0
2017-Dec-11 03:31N 39°54' W 075°12'0 0.0
2017-Dec-11 03:01N 39°54' W 075°12'0 0.0
2017-Dec-11 02:31N 39°54' W 075°12'0 0.0
2017-Dec-11 02:01N 39°54' W 075°12'0 0.0
2017-Dec-11 01:31N 39°54' W 075°12'0 0.0
2017-Dec-11 01:01N 39°54' W 075°12'0 0.0
2017-Dec-11 00:30N 39°54' W 075°12'0 0.0
2017-Dec-11 00:00N 39°54' W 075°12'0 0.0
2017-Dec-10 23:31N 39°54' W 075°12'0 0.0
2017-Dec-10 23:01N 39°54' W 075°12'0 0.0
2017-Dec-10 22:30N 39°54' W 075°12'0 0.0
2017-Dec-10 22:00N 39°54' W 075°12'0 0.0
2017-Dec-10 21:30N 39°54' W 075°12'0 0.0
2017-Dec-10 21:00N 39°54' W 075°12'0 0.0
2017-Dec-10 20:30N 39°54' W 075°12'0 0.0
2017-Dec-10 20:01N 39°54' W 075°12'0 0.0
2017-Dec-10 19:30N 39°54' W 075°12'0 0.0
2017-Dec-10 19:00N 39°54' W 075°12'0 0.0
2017-Dec-10 18:30N 39°54' W 075°12'0 0.0
2017-Dec-10 18:01N 39°54' W 075°12'0 0.0
2017-Dec-10 17:31N 39°54' W 075°12'0 0.0
2017-Dec-10 17:00N 39°54' W 075°12'0 0.6
2017-Dec-10 16:31N 39°54' W 075°12'0 0.6
2017-Dec-10 16:00N 39°54' W 075°12'0 0.0
2017-Dec-10 15:30N 39°54' W 075°12'0 0.0
2017-Dec-10 15:01N 39°54' W 075°12'0 0.0
2017-Dec-10 14:31N 39°54' W 075°12'0 0.0
2017-Dec-10 14:01N 39°54' W 075°12'0 0.0
2017-Dec-10 13:31N 39°54' W 075°12'1 2.9
2017-Dec-10 13:00N 39°53' W 075°10'4 8.4
2017-Dec-10 12:31N 39°57' W 075°08'4 8.1
2017-Dec-10 12:01N 39°59' W 075°04'1 1.5
2017-Dec-10 11:31N 39°60' W 075°04'4 8.3
2017-Dec-10 11:01N 39°58' W 075°08'3 5.7
2017-Dec-10 10:30N 39°55' W 075°08'3 6.8
2017-Dec-10 10:01N 39°53' W 075°11'1 1.3
2017-Dec-10 09:31N 39°54' W 075°12'0 0.0
2017-Dec-10 08:58N 39°54' W 075°12'0 0.0
2017-Dec-10 08:28N 39°54' W 075°12'0 0.0
2017-Dec-10 07:58N 39°54' W 075°12'0 0.0
2017-Dec-10 07:28N 39°54' W 075°12'0 0.0
2017-Dec-10 06:58N 39°54' W 075°12'0 0.1
2017-Dec-10 06:28N 39°54' W 075°12'0 0.0
2017-Dec-10 05:58N 39°54' W 075°12'0 0.0
2017-Dec-10 05:28N 39°54' W 075°12'0 0.0
2017-Dec-10 04:58N 39°54' W 075°12'0 0.0
2017-Dec-10 04:28N 39°54' W 075°12'0 0.0
2017-Dec-10 03:58N 39°54' W 075°12'0 0.0
2017-Dec-10 03:28N 39°54' W 075°12'0 0.0
2017-Dec-10 02:58N 39°54' W 075°12'0 0.0
2017-Dec-10 02:28N 39°54' W 075°12'0 0.0
2017-Dec-10 01:58N 39°54' W 075°12'0 0.0
2017-Dec-10 01:28N 39°54' W 075°12'0 0.0
2017-Dec-10 00:58N 39°54' W 075°12'0 0.0
2017-Dec-10 00:28N 39°54' W 075°12'0 0.0
2017-Dec-09 23:58N 39°54' W 075°12'0 0.1
2017-Dec-09 23:28N 39°54' W 075°12'0 0.0
2017-Dec-09 22:58N 39°54' W 075°12'0 0.0
2017-Dec-09 22:28N 39°54' W 075°12'0 0.0
2017-Dec-09 21:58N 39°54' W 075°12'0 0.0
2017-Dec-09 21:28N 39°54' W 075°12'0 0.0
2017-Dec-09 20:58N 39°54' W 075°12'0 0.0
2017-Dec-09 20:28N 39°54' W 075°12'0 0.0
2017-Dec-09 19:58N 39°54' W 075°12'0 0.0
2017-Dec-09 19:28N 39°54' W 075°12'0 0.1
2017-Dec-09 19:01N 39°54' W 075°12'4 8.7
2017-Dec-09 18:30N 39°51' W 075°16'4 8.0
2017-Dec-09 18:00N 39°50' W 075°21'2 4.9
2017-Dec-09 17:30N 39°49' W 075°24'3 6.3
2017-Dec-09 17:01N 39°47' W 075°27'0 0.3
2017-Dec-09 16:30N 39°47' W 075°27'0 0.0
2017-Dec-09 16:00N 39°47' W 075°27'1 2.4
2017-Dec-09 15:31N 39°48' W 075°26'5 8.7
2017-Dec-09 14:59N 39°50' W 075°21'0 0.0
2017-Dec-09 14:31N 39°50' W 075°21'2 3.4
2017-Dec-09 14:00N 39°50' W 075°23'2 3.4
2017-Dec-09 13:30N 39°50' W 075°21'0 0.0
2017-Dec-09 13:00N 39°50' W 075°21'0 0.0
2017-Dec-09 12:30N 39°50' W 075°21'0 0.0
2017-Dec-09 12:00N 39°50' W 075°21'0 0.0
2017-Dec-09 11:30N 39°50' W 075°21'0 0.0
2017-Dec-09 11:00N 39°50' W 075°21'0 0.0
2017-Dec-09 10:30N 39°50' W 075°21'0 0.0
2017-Dec-09 10:00N 39°50' W 075°21'0 0.0
2017-Dec-09 09:30N 39°50' W 075°21'0 0.3
2017-Dec-09 09:00N 39°50' W 075°21'1 1.2
2017-Dec-09 08:31N 39°50' W 075°22'1 2.3
2017-Dec-09 07:56N 39°49' W 075°23'0 0.1
2017-Dec-09 07:29N 39°49' W 075°23'0 0.1
2017-Dec-09 06:59N 39°49' W 075°23'0 0.0
2017-Dec-09 06:29N 39°49' W 075°23'0 0.1
2017-Dec-09 05:59N 39°49' W 075°23'0 0.1
2017-Dec-09 05:29N 39°49' W 075°23'0 0.2
2017-Dec-09 04:59N 39°49' W 075°23'2 3.4
2017-Dec-09 04:30N 39°50' W 075°22'0 0.4
2017-Dec-09 04:00N 39°50' W 075°22'0 0.1
2017-Dec-09 03:27N 39°50' W 075°22'0 0.0
2017-Dec-09 03:00N 39°50' W 075°22'0 0.0
2017-Dec-09 02:30N 39°50' W 075°22'0 0.0
2017-Dec-09 02:00N 39°50' W 075°22'0 0.5
2017-Dec-09 01:30N 39°50' W 075°22'0 0.4
2017-Dec-09 01:00N 39°50' W 075°22'0 0.0
2017-Dec-09 00:30N 39°50' W 075°22'0 0.8
2017-Dec-09 00:01N 39°50' W 075°22'0 0.4
2017-Dec-08 23:31N 39°50' W 075°21'0 0.1
2017-Dec-08 23:00N 39°50' W 075°21'0 0.0
2017-Dec-08 22:30N 39°50' W 075°21'0 0.4
2017-Dec-08 22:01N 39°50' W 075°21'0 0.5
2017-Dec-08 21:31N 39°50' W 075°21'0 0.3
2017-Dec-08 21:01N 39°50' W 075°21'0 0.3
2017-Dec-08 20:31N 39°50' W 075°21'1 2.4
2017-Dec-08 20:01N 39°50' W 075°23'1 1.6
2017-Dec-08 19:31N 39°49' W 075°23'0 0.0
2017-Dec-08 19:01N 39°49' W 075°23'0 0.0
2017-Dec-08 18:31N 39°49' W 075°23'0 0.0
2017-Dec-08 18:01N 39°49' W 075°23'0 0.1
2017-Dec-08 17:30N 39°49' W 075°23'0 0.0
2017-Dec-08 17:00N 39°49' W 075°23'0 0.0
2017-Dec-08 16:31N 39°49' W 075°23'0 0.0
2017-Dec-08 16:00N 39°49' W 075°23'0 0.0
2017-Dec-08 15:30N 39°49' W 075°23'0 0.1
2017-Dec-08 15:01N 39°49' W 075°23'0 0.2
2017-Dec-08 14:30N 39°49' W 075°23'0 0.0
2017-Dec-08 14:01N 39°49' W 075°23'0 0.0
2017-Dec-08 13:30N 39°49' W 075°23'0 0.1
2017-Dec-08 13:00N 39°49' W 075°23'0 0.0
2017-Dec-08 12:30N 39°49' W 075°23'0 0.0
2017-Dec-08 12:00N 39°49' W 075°23'0 0.0
2017-Dec-08 11:30N 39°49' W 075°23'0 0.1
2017-Dec-08 11:00N 39°49' W 075°23'0 0.0
2017-Dec-08 10:30N 39°49' W 075°23'0 0.0
2017-Dec-08 10:01N 39°49' W 075°23'0 0.0
2017-Dec-08 09:30N 39°49' W 075°23'1 2.8
2017-Dec-08 09:00N 39°50' W 075°22'1 1.6
2017-Dec-08 08:30N 39°50' W 075°21'0 0.0
2017-Dec-08 08:00N 39°50' W 075°21'0 0.1
2017-Dec-08 07:31N 39°50' W 075°21'0 0.0
2017-Dec-08 07:00N 39°50' W 075°21'0 0.0
2017-Dec-08 06:30N 39°50' W 075°21'0 0.0
2017-Dec-08 06:00N 39°50' W 075°21'0 0.0
2017-Dec-08 05:30N 39°50' W 075°21'0 0.0
2017-Dec-08 05:00N 39°50' W 075°21'0 0.0
2017-Dec-08 04:30N 39°50' W 075°21'0 0.0
2017-Dec-08 04:00N 39°50' W 075°21'0 0.0
2017-Dec-08 03:30N 39°50' W 075°21'0 0.0
2017-Dec-08 03:00N 39°50' W 075°21'0 0.1
2017-Dec-08 02:30N 39°50' W 075°21'0 0.4
2017-Dec-08 02:00N 39°50' W 075°21'0 0.0
2017-Dec-08 01:30N 39°50' W 075°21'0 0.0
2017-Dec-08 01:00N 39°50' W 075°21'0 0.2
2017-Dec-08 00:31N 39°50' W 075°21'0 0.0
2017-Dec-08 00:01N 39°50' W 075°21'0 0.0
2017-Dec-07 23:30N 39°50' W 075°21'0 0.0
2017-Dec-07 23:00N 39°50' W 075°21'0 0.0
2017-Dec-07 22:30N 39°50' W 075°21'0 0.1
2017-Dec-07 22:01N 39°50' W 075°21'0 0.2
2017-Dec-07 21:31N 39°50' W 075°21'0 0.6
2017-Dec-07 21:01N 39°50' W 075°22'0 0.0
2017-Dec-07 20:30N 39°50' W 075°22'0 0.1
2017-Dec-07 20:00N 39°50' W 075°22'0 0.1
2017-Dec-07 19:30N 39°50' W 075°22'0 0.0
2017-Dec-07 19:00N 39°50' W 075°22'0 0.2
2017-Dec-07 18:30N 39°50' W 075°21'2 3.4
2017-Dec-07 18:00N 39°49' W 075°23'0 0.0
2017-Dec-07 17:30N 39°49' W 075°23'0 0.0
2017-Dec-07 17:01N 39°49' W 075°23'0 0.2
2017-Dec-07 16:31N 39°49' W 075°23'0 0.1
2017-Dec-07 16:00N 39°49' W 075°23'0 0.0
2017-Dec-07 15:30N 39°49' W 075°23'0 0.0
2017-Dec-07 15:00N 39°49' W 075°23'0 0.0
2017-Dec-07 14:30N 39°49' W 075°23'0 0.0
2017-Dec-07 14:00N 39°49' W 075°23'0 0.0
2017-Dec-07 13:30N 39°49' W 075°23'0 0.0
2017-Dec-07 13:00N 39°49' W 075°23'0 0.0
2017-Dec-07 12:30N 39°49' W 075°23'1 1.3
2017-Dec-07 12:00N 39°50' W 075°23'0 0.2
2017-Dec-07 11:30N 39°50' W 075°23'1 1.2
2017-Dec-07 10:59N 39°49' W 075°23'0 0.1
2017-Dec-07 10:31N 39°49' W 075°23'0 0.2
2017-Dec-07 10:01N 39°49' W 075°23'1 1.1
2017-Dec-07 09:31N 39°50' W 075°23'4 6.9
2017-Dec-07 09:00N 39°47' W 075°27'3 6.0
2017-Dec-07 08:30N 39°49' W 075°23'1 1.1
2017-Dec-07 08:00N 39°50' W 075°23'1 1.1
2017-Dec-07 07:30N 39°49' W 075°23'0 0.0
2017-Dec-07 07:00N 39°49' W 075°23'0 0.0
2017-Dec-07 06:30N 39°49' W 075°23'0 0.0
2017-Dec-07 06:00N 39°49' W 075°23'0 0.6
2017-Dec-07 05:30N 39°49' W 075°23'0 0.6
2017-Dec-07 04:59N 39°49' W 075°23'0 0.0
2017-Dec-07 04:31N 39°49' W 075°23'0 0.1
2017-Dec-07 04:00N 39°49' W 075°23'1 1.0
2017-Dec-07 03:30N 39°49' W 075°23'0 0.3
2017-Dec-07 03:01N 39°50' W 075°23'0 0.0
2017-Dec-07 02:31N 39°50' W 075°23'0 0.0
2017-Dec-07 02:00N 39°50' W 075°23'0 0.0
2017-Dec-07 01:30N 39°50' W 075°23'4 7.4
2017-Dec-07 01:01N 39°47' W 075°27'3 6.0
2017-Dec-07 00:30N 39°49' W 075°24'1 1.4
2017-Dec-06 23:59N 39°50' W 075°23'0 0.2
2017-Dec-06 23:30N 39°50' W 075°23'0 0.8
2017-Dec-06 22:59N 39°49' W 075°23'0 0.7
2017-Dec-06 22:30N 39°49' W 075°23'0 0.1
2017-Dec-06 21:58N 39°49' W 075°23'0 0.1
2017-Dec-06 21:28N 39°49' W 075°23'0 0.1
2017-Dec-06 20:58N 39°49' W 075°23'  
2017-Dec-04 10:30N 39°50' W 075°21'0 0.0
2017-Dec-04 10:01N 39°50' W 075°21'0 0.0
2017-Dec-04 09:23N 39°50' W 075°21'0 0.0
2017-Dec-04 08:59N 39°50' W 075°21'0 0.0
2017-Dec-04 08:27N 39°50' W 075°21'0 0.0
2017-Dec-04 07:58N 39°50' W 075°21'0 0.0
2017-Dec-04 07:25N 39°50' W 075°21'0 0.1
2017-Dec-04 06:59N 39°50' W 075°21'0 0.3
2017-Dec-04 06:27N 39°50' W 075°21'0 0.0
2017-Dec-04 05:54N 39°50' W 075°21'0 0.0
2017-Dec-04 05:29N 39°50' W 075°21'0 0.0
2017-Dec-04 04:59N 39°50' W 075°21'0 0.0
2017-Dec-04 04:26N 39°50' W 075°21'0 0.1
2017-Dec-04 04:00N 39°50' W 075°21'0 0.0
2017-Dec-04 03:27N 39°50' W 075°21'0 0.0
2017-Dec-04 02:57N 39°50' W 075°21'0 0.0
2017-Dec-04 02:28N 39°50' W 075°21'0 0.0
2017-Dec-04 01:59N 39°50' W 075°21'0 0.1
2017-Dec-04 01:28N 39°50' W 075°21'0 0.0
2017-Dec-04 00:55N 39°50' W 075°21'0 0.0
2017-Dec-04 00:27N 39°50' W 075°21'0 0.0
2017-Dec-04 00:00N 39°50' W 075°21'0 0.0
2017-Dec-03 23:30N 39°50' W 075°21'0 0.0
2017-Dec-03 23:00N 39°50' W 075°21'0 0.0
2017-Dec-03 22:29N 39°50' W 075°21'0 0.0
2017-Dec-03 22:00N 39°50' W 075°21'0 0.0
2017-Dec-03 21:30N 39°50' W 075°21'0 0.0
2017-Dec-03 20:54N 39°50' W 075°21'0 0.0
2017-Dec-03 20:28N 39°50' W 075°21'0 0.4
2017-Dec-03 20:01N 39°50' W 075°21'0 0.3
2017-Dec-03 19:26N 39°50' W 075°21'0 0.0
2017-Dec-03 18:58N 39°50' W 075°21'0 0.0
2017-Dec-03 18:29N 39°50' W 075°21'0 0.0
2017-Dec-03 17:59N 39°50' W 075°21'0 0.0
2017-Dec-03 17:29N 39°50' W 075°21'0 0.3
2017-Dec-03 16:59N 39°50' W 075°21'0 0.0
2017-Dec-03 16:23N 39°50' W 075°21'0 0.1
2017-Dec-03 15:56N 39°50' W 075°21'0 0.1
2017-Dec-03 15:29N 39°50' W 075°21'0 0.0
2017-Dec-03 14:56N 39°50' W 075°21'0 0.0
2017-Dec-03 14:28N 39°50' W 075°21'0 0.0
2017-Dec-03 14:00N 39°50' W 075°21'2 2.7
2017-Dec-03 13:24N 39°49' W 075°23'0 0.2
2017-Dec-03 12:56N 39°49' W 075°23'0 0.0
2017-Dec-03 12:30N 39°49' W 075°23'0 0.0
2017-Dec-03 12:00N 39°49' W 075°23'0 0.0
2017-Dec-03 11:30N 39°49' W 075°23'1 1.8
2017-Dec-03 10:58N 39°50' W 075°22'0 0.5
2017-Dec-03 10:31N 39°50' W 075°22'0 0.0
2017-Dec-03 10:00N 39°50' W 075°22'0 0.0
2017-Dec-03 09:30N 39°50' W 075°22'0 0.0
2017-Dec-03 09:00N 39°50' W 075°22'0 0.3
2017-Dec-03 08:30N 39°50' W 075°22'0 0.0
2017-Dec-03 08:00N 39°50' W 075°22'0 0.0
2017-Dec-03 07:29N 39°50' W 075°22'0 0.0
2017-Dec-03 06:59N 39°50' W 075°22'0 0.4
2017-Dec-03 06:30N 39°50' W 075°22'0 0.0
2017-Dec-03 06:00N 39°50' W 075°21'0 0.0
2017-Dec-03 05:29N 39°50' W 075°21'0 0.0
2017-Dec-03 04:58N 39°50' W 075°21'0 0.0
2017-Dec-03 04:30N 39°50' W 075°21'0 0.1
2017-Dec-03 03:57N 39°50' W 075°21'0 0.0
2017-Dec-03 03:30N 39°50' W 075°21'0 0.0
2017-Dec-03 02:59N 39°50' W 075°21'0 0.1
2017-Dec-03 02:29N 39°50' W 075°21'0 0.0
2017-Dec-03 02:00N 39°50' W 075°21'0 0.0
2017-Dec-03 01:27N 39°50' W 075°21'0 0.0
2017-Dec-03 00:59N 39°50' W 075°21'0 0.0
2017-Dec-03 00:30N 39°50' W 075°21'0 0.0
2017-Dec-03 00:00N 39°50' W 075°21'0 0.0
2017-Dec-02 23:30N 39°50' W 075°21'0 0.0
2017-Dec-02 22:59N 39°50' W 075°21'0 0.0
2017-Dec-02 22:27N 39°50' W 075°21'0 0.0
2017-Dec-02 21:58N 39°50' W 075°21'0 0.0
2017-Dec-02 21:28N 39°50' W 075°21'0 0.0
2017-Dec-02 21:00N 39°50' W 075°21'0 0.0
2017-Dec-02 20:29N 39°50' W 075°21'0 0.0
2017-Dec-02 19:56N 39°50' W 075°21'0 0.0
2017-Dec-02 19:29N 39°50' W 075°21'0 0.0
2017-Dec-02 18:59N 39°50' W 075°21'0 0.0
2017-Dec-02 18:26N 39°50' W 075°21'0 0.0
2017-Dec-02 18:00N 39°50' W 075°21'0 0.0
2017-Dec-02 17:28N 39°50' W 075°21'0 0.1
2017-Dec-02 17:00N 39°50' W 075°21'0 0.1
2017-Dec-02 16:28N 39°50' W 075°21'0 0.1
2017-Dec-02 15:57N 39°50' W 075°21'0 0.1
2017-Dec-02 15:30N 39°50' W 075°21'0 0.1
2017-Dec-02 14:59N 39°50' W 075°21'0 0.0
2017-Dec-02 14:30N 39°50' W 075°21'0 0.0
2017-Dec-02 13:59N 39°50' W 075°21'0 0.2
2017-Dec-02 13:29N 39°50' W 075°22'0 0.0
2017-Dec-02 13:00N 39°50' W 075°21'0 0.0
2017-Dec-02 12:30N 39°50' W 075°21'0 0.0
2017-Dec-02 11:59N 39°50' W 075°21'0 0.0
2017-Dec-02 11:30N 39°50' W 075°21'0 0.0
2017-Dec-02 10:59N 39°50' W 075°21'0 0.1
2017-Dec-02 10:29N 39°50' W 075°21'0 0.2
2017-Dec-02 10:00N 39°50' W 075°22'0 0.0
2017-Dec-02 09:30N 39°50' W 075°22'0 0.0
2017-Dec-02 09:00N 39°50' W 075°22'0 0.0
2017-Dec-02 08:30N 39°50' W 075°22'0 0.2
2017-Dec-02 07:58N 39°50' W 075°22'0 0.0
2017-Dec-02 07:28N 39°50' W 075°22'0 0.0
2017-Dec-02 06:58N 39°50' W 075°22'0 0.0
2017-Dec-02 06:30N 39°50' W 075°22'0 0.2
2017-Dec-02 06:00N 39°50' W 075°22'0 0.0
2017-Dec-02 05:30N 39°50' W 075°22'0 0.0
2017-Dec-02 05:00N 39°50' W 075°22'0 0.3
2017-Dec-02 04:30N 39°50' W 075°22'0 0.3
2017-Dec-02 04:00N 39°50' W 075°22'0 0.1
2017-Dec-02 03:29N 39°50' W 075°22'0 0.1
2017-Dec-02 03:00N 39°50' W 075°22'0 0.0
2017-Dec-02 02:30N 39°50' W 075°22'0 0.1
2017-Dec-02 01:59N 39°50' W 075°22'0 0.0
2017-Dec-02 01:30N 39°50' W 075°22'0 0.0
2017-Dec-02 01:00N 39°50' W 075°22'0 0.0
2017-Dec-02 00:30N 39°50' W 075°22'0 0.0
2017-Dec-02 00:00N 39°50' W 075°22'0 0.0
2017-Dec-01 23:30N 39°50' W 075°22'0 0.2
2017-Dec-01 23:00N 39°50' W 075°22'0 0.1
2017-Dec-01 22:30N 39°50' W 075°22'0 0.4
2017-Dec-01 22:01N 39°50' W 075°22'0 0.7
2017-Dec-01 21:28N 39°49' W 075°23'0 0.5
2017-Dec-01 21:01N 39°49' W 075°23'0 0.0
2017-Dec-01 20:31N 39°49' W 075°23'0 0.2
2017-Dec-01 20:00N 39°49' W 075°23'0 0.1
2017-Dec-01 19:30N 39°49' W 075°23'0 0.1
2017-Dec-01 19:01N 39°49' W 075°23'1 1.5
2017-Dec-01 18:28N 39°50' W 075°22'0 0.0
2017-Dec-01 17:58N 39°50' W 075°22'0 0.0
2017-Dec-01 17:28N 39°50' W 075°22'  

Dump ship's entire track history